Time;durP1;ratioP1;P1;durP2;ratioP2;P2;SDS_P1;SDS_P2;PMS_P1;PMS_P2;Temp;Humidity;BMP_temperature;BMP_pressure;BME280_temperature;BME280_humidity;BME280_pressure;Samples;Min_cycle;Max_cycle;Signal;HPM_P1;HPM_P2
2021/10/06 00:01:25;;;;;;;;;0.00;0.00;;;;;;;;5063485;28;9062;-84
2021/10/06 00:03:54;;;;;;;;;0.00;0.00;;;;;;;;5061303;28;9206;-86
2021/10/06 00:06:21;;;;;;;;;1.00;1.00;;;;;;;;5049262;28;9343;-85
2021/10/06 00:08:48;;;;;;;;;3.00;1.00;;;;;;;;5044528;28;9395;-89
2021/10/06 00:11:16;;;;;;;;;1.00;1.00;;;;;;;;5061694;28;9271;-83
2021/10/06 00:13:43;;;;;;;;;1.00;1.00;;;;;;;;5064340;28;9228;-81
2021/10/06 00:16:12;;;;;;;;;1.00;1.00;;;;;;;;5066577;28;9373;-81
2021/10/06 00:18:40;;;;;;;;;0.33;0.00;;;;;;;;5068040;28;9406;-76
2021/10/06 00:21:09;;;;;;;;;1.00;1.00;;;;;;;;5064699;28;9232;-80
2021/10/06 00:23:37;;;;;;;;;0.33;0.33;;;;;;;;5066329;28;9315;-85
2021/10/06 00:26:06;;;;;;;;;1.00;1.00;;;;;;;;5065153;28;9346;-84
2021/10/06 00:28:34;;;;;;;;;1.00;1.00;;;;;;;;5064957;28;9441;-81
2021/10/06 00:31:01;;;;;;;;;1.00;1.00;;;;;;;;5066473;28;9406;-81
2021/10/06 00:33:28;;;;;;;;;2.00;1.00;;;;;;;;5063002;28;10089;-84
2021/10/06 00:35:56;;;;;;;;;0.00;0.00;;;;;;;;5048043;28;9325;-77
2021/10/06 00:38:26;;;;;;;;;1.00;0.00;;;;;;;;5067236;28;9472;-80
2021/10/06 00:40:54;;;;;;;;;0.00;0.00;;;;;;;;5067362;28;9464;-81
2021/10/06 00:43:22;;;;;;;;;1.33;0.67;;;;;;;;5063923;28;9337;-81
2021/10/06 00:45:49;;;;;;;;;0.50;0.25;;;;;;;;5065742;28;9440;-81
2021/10/06 00:48:17;;;;;;;;;1.00;1.00;;;;;;;;5067224;28;9400;-78
2021/10/06 00:50:45;;;;;;;;;3.00;0.00;;;;;;;;5065193;28;9359;-76
2021/10/06 00:53:13;;;;;;;;;1.00;1.00;;;;;;;;5055402;28;9305;-84
2021/10/06 00:55:42;;;;;;;;;1.00;1.00;;;;;;;;5065141;28;9272;-84
2021/10/06 00:58:09;;;;;;;;;1.00;1.00;;;;;;;;5068987;28;9377;-75
2021/10/06 01:00:37;;;;;;;;;0.00;0.00;;;;;;;;5063036;28;9132;-79
2021/10/06 01:03:04;;;;;;;;;1.67;1.67;;;;;;;;5066357;28;9182;-90
2021/10/06 01:05:32;;;;;;;;;0.00;0.00;;;;;;;;5066319;28;9285;-85
2021/10/06 01:07:59;;;;;;;;;0.67;0.67;;;;;;;;5064443;28;9184;-87
2021/10/06 01:10:27;;;;;;;;;1.33;0.67;;;;;;;;5066004;28;9181;-87
2021/10/06 01:12:56;;;;;;;;;0.00;0.00;;;;;;;;5065338;28;9455;-75
2021/10/06 01:15:24;;;;;;;;;4.00;0.33;;;;;;;;5064875;28;9315;-85
2021/10/06 01:17:52;;;;;;;;;0.00;0.00;;;;;;;;5063541;28;9470;-86
2021/10/06 01:20:19;;;;;;;;;0.67;0.67;;;;;;;;5067387;28;9464;-86
2021/10/06 01:22:48;;;;;;;;;0.00;0.00;;;;;;;;5065035;28;9405;-78
2021/10/06 01:25:18;;;;;;;;;1.00;1.00;;;;;;;;5065004;28;9408;-77
2021/10/06 01:27:46;;;;;;;;;2.67;1.33;;;;;;;;5064780;28;9395;-87
2021/10/06 01:30:14;;;;;;;;;0.00;0.00;;;;;;;;5060812;28;9515;-83
2021/10/06 01:32:43;;;;;;;;;0.00;0.00;;;;;;;;5066223;28;10414;-89
2021/10/06 01:35:12;;;;;;;;;1.00;1.00;;;;;;;;5063700;28;9317;-84
2021/10/06 01:37:40;;;;;;;;;0.00;0.00;;;;;;;;5066485;28;9470;-75
2021/10/06 01:40:12;;;;;;;;;0.00;0.00;;;;;;;;5063008;28;9368;-77
2021/10/06 01:42:40;;;;;;;;;0.33;0.33;;;;;;;;5064872;28;9349;-81
2021/10/06 01:45:13;;;;;;;;;0.00;0.00;;;;;;;;5067173;28;9507;-85
2021/10/06 01:47:41;;;;;;;;;2.00;0.67;;;;;;;;5064550;28;9353;-78
2021/10/06 01:50:09;;;;;;;;;0.33;0.00;;;;;;;;5065968;28;9540;-85
2021/10/06 01:52:36;;;;;;;;;2.00;1.00;;;;;;;;5062302;28;9335;-84
2021/10/06 01:55:19;;;;;;;;;0.00;0.00;;;;;;;;5047761;28;9491;-79
2021/10/06 01:57:47;;;;;;;;;1.00;0.00;;;;;;;;5062589;28;9390;-81
2021/10/06 02:00:15;;;;;;;;;0.75;0.75;;;;;;;;5029730;28;9410;-87
2021/10/06 02:02:43;;;;;;;;;0.00;0.00;;;;;;;;5064051;28;10210;-84
2021/10/06 02:05:10;;;;;;;;;0.00;0.00;;;;;;;;5064790;28;9469;-80
2021/10/06 02:07:38;;;;;;;;;2.00;0.25;;;;;;;;5062648;28;9410;-81
2021/10/06 02:10:06;;;;;;;;;0.00;0.00;;;;;;;;5055610;28;9581;-76
2021/10/06 02:12:35;;;;;;;;;0.00;0.00;;;;;;;;5065280;28;9402;-84
2021/10/06 02:15:03;;;;;;;;;1.00;0.00;;;;;;;;5064007;28;9548;-87
2021/10/06 02:17:31;;;;;;;;;0.00;0.00;;;;;;;;5064942;28;9605;-80
2021/10/06 02:19:58;;;;;;;;;0.50;0.50;;;;;;;;5065680;28;9383;-87
2021/10/06 02:22:25;;;;;;;;;0.00;0.00;;;;;;;;5061754;28;9506;-79
2021/10/06 02:24:53;;;;;;;;;3.00;1.50;;;;;;;;5061541;28;9504;-77
2021/10/06 02:27:20;;;;;;;;;0.00;0.00;;;;;;;;5061505;28;9638;-79
2021/10/06 02:29:49;;;;;;;;;0.00;0.00;;;;;;;;5060029;28;9652;-88
2021/10/06 02:32:16;;;;;;;;;0.00;0.00;;;;;;;;5064455;28;9450;-77
2021/10/06 02:34:43;;;;;;;;;0.25;0.25;;;;;;;;5045720;28;9475;-83
2021/10/06 02:37:11;;;;;;;;;0.00;0.00;;;;;;;;5062721;28;9474;-80
2021/10/06 02:39:38;;;;;;;;;0.00;0.00;;;;;;;;5063033;28;10267;-82
2021/10/06 02:42:06;;;;;;;;;1.00;1.00;;;;;;;;5063667;28;10307;-83
2021/10/06 02:44:33;;;;;;;;;0.00;0.00;;;;;;;;5046750;28;9770;-78
2021/10/06 02:47:02;;;;;;;;;0.50;0.25;;;;;;;;5064689;28;9713;-86
2021/10/06 02:49:30;;;;;;;;;0.00;0.00;;;;;;;;5061683;28;9657;-76
2021/10/06 02:51:57;;;;;;;;;2.00;0.75;;;;;;;;5064602;28;9623;-76
2021/10/06 02:54:25;;;;;;;;;0.75;0.75;;;;;;;;5064091;28;9579;-83
2021/10/06 02:56:52;;;;;;;;;0.50;0.50;;;;;;;;5062446;28;9665;-87
2021/10/06 02:59:20;;;;;;;;;0.00;0.00;;;;;;;;5044183;28;9682;-86
2021/10/06 03:01:47;;;;;;;;;0.00;0.00;;;;;;;;5063264;28;9615;-81
2021/10/06 03:04:16;;;;;;;;;1.00;1.00;;;;;;;;5047577;28;9581;-79
2021/10/06 03:06:43;;;;;;;;;1.50;1.25;;;;;;;;5063638;28;10373;-79
2021/10/06 03:09:11;;;;;;;;;0.00;0.00;;;;;;;;5060062;28;9670;-74
2021/10/06 03:11:38;;;;;;;;;3.00;1.50;;;;;;;;5064264;28;9608;-74
2021/10/06 03:14:07;;;;;;;;;1.00;1.00;;;;;;;;5063490;28;10543;-80
2021/10/06 03:16:34;;;;;;;;;3.00;1.00;;;;;;;;5064520;28;9564;-83
2021/10/06 03:19:01;;;;;;;;;4.00;1.00;;;;;;;;5058385;28;9659;-78
2021/10/06 03:21:30;;;;;;;;;0.75;0.75;;;;;;;;5064125;28;9557;-79
2021/10/06 03:23:58;;;;;;;;;3.50;1.75;;;;;;;;5044709;28;9650;-85
2021/10/06 03:26:25;;;;;;;;;0.25;0.25;;;;;;;;5071510;28;9765;-86
2021/10/06 03:28:53;;;;;;;;;1.00;1.00;;;;;;;;5062836;28;9813;-77
2021/10/06 03:31:20;;;;;;;;;0.00;0.00;;;;;;;;5062702;28;9561;-78
2021/10/06 03:33:47;;;;;;;;;0.50;0.50;;;;;;;;5056395;28;9675;-78
2021/10/06 03:36:15;;;;;;;;;2.00;2.00;;;;;;;;5061739;28;9668;-79
2021/10/06 03:38:43;;;;;;;;;1.00;1.00;;;;;;;;5063727;28;9692;-88
2021/10/06 03:41:11;;;;;;;;;1.00;1.00;;;;;;;;5062983;28;9814;-88
2021/10/06 03:43:38;;;;;;;;;0.50;0.50;;;;;;;;5047859;28;9798;-87
2021/10/06 03:46:05;;;;;;;;;2.50;1.75;;;;;;;;5061900;28;9680;-89
2021/10/06 03:48:33;;;;;;;;;0.50;0.50;;;;;;;;5055943;28;9851;-75
2021/10/06 03:51:00;;;;;;;;;0.25;0.25;;;;;;;;5068625;28;9538;-79
2021/10/06 03:53:27;;;;;;;;;1.25;1.00;;;;;;;;5066450;28;9648;-89
2021/10/06 03:55:56;;;;;;;;;1.00;1.00;;;;;;;;5067239;28;9710;-85
2021/10/06 03:58:23;;;;;;;;;1.00;1.00;;;;;;;;5066458;28;9612;-74
2021/10/06 04:00:50;;;;;;;;;0.00;0.00;;;;;;;;5067272;28;9553;-80
2021/10/06 04:03:18;;;;;;;;;0.75;0.75;;;;;;;;5066827;28;9615;-88
2021/10/06 04:05:45;;;;;;;;;1.00;0.00;;;;;;;;5067516;28;9898;-77
2021/10/06 04:08:12;;;;;;;;;1.00;1.00;;;;;;;;5060704;28;9622;-79
2021/10/06 04:10:40;;;;;;;;;0.25;0.25;;;;;;;;5066175;28;10603;-77
2021/10/06 04:13:09;;;;;;;;;1.00;1.00;;;;;;;;5067573;28;9749;-74
2021/10/06 04:15:36;;;;;;;;;1.50;0.00;;;;;;;;5048084;28;9638;-75
2021/10/06 04:18:05;;;;;;;;;0.50;0.00;;;;;;;;5067125;28;9506;-87
2021/10/06 04:20:32;;;;;;;;;1.00;1.00;;;;;;;;5066311;28;9634;-88
2021/10/06 04:23:00;;;;;;;;;0.75;0.75;;;;;;;;5067607;28;9590;-79
2021/10/06 04:25:27;;;;;;;;;1.00;1.00;;;;;;;;5067018;28;9571;-87
2021/10/06 04:27:54;;;;;;;;;2.00;1.00;;;;;;;;5065470;28;9652;-78
2021/10/06 04:30:24;;;;;;;;;1.75;0.25;;;;;;;;5064616;28;9764;-75
2021/10/06 04:32:51;;;;;;;;;0.50;0.50;;;;;;;;5065895;28;9556;-76
2021/10/06 04:35:18;;;;;;;;;0.00;0.00;;;;;;;;5045658;28;10402;-76
2021/10/06 04:37:46;;;;;;;;;2.00;2.00;;;;;;;;5057082;28;9637;-76
2021/10/06 04:40:13;;;;;;;;;0.50;0.50;;;;;;;;5065976;28;9956;-88
2021/10/06 04:42:44;;;;;;;;;0.00;0.00;;;;;;;;5066134;28;9757;-83
2021/10/06 04:45:11;;;;;;;;;1.00;0.00;;;;;;;;5065750;28;9549;-79
2021/10/06 04:47:40;;;;;;;;;2.00;0.00;;;;;;;;5066184;28;9638;-76
2021/10/06 04:50:08;;;;;;;;;1.00;1.00;;;;;;;;5065182;28;9601;-81
2021/10/06 04:52:36;;;;;;;;;0.25;0.25;;;;;;;;5066048;28;9418;-90
2021/10/06 04:55:03;;;;;;;;;2.00;0.50;;;;;;;;5061472;28;9624;-74
2021/10/06 04:57:30;;;;;;;;;0.00;0.00;;;;;;;;5063111;28;10251;-75
2021/10/06 04:59:57;;;;;;;;;0.00;0.00;;;;;;;;5058723;28;9499;-73
2021/10/06 05:02:25;;;;;;;;;0.75;0.75;;;;;;;;5057734;28;9460;-82
2021/10/06 05:04:54;;;;;;;;;1.00;1.00;;;;;;;;5056838;28;9496;-74
2021/10/06 05:07:21;;;;;;;;;1.00;0.00;;;;;;;;5043594;28;9691;-80
2021/10/06 05:09:49;;;;;;;;;1.00;1.00;;;;;;;;5058534;28;9677;-74
2021/10/06 05:12:16;;;;;;;;;1.00;1.00;;;;;;;;5043070;28;9616;-80
2021/10/06 05:14:43;;;;;;;;;3.00;1.00;;;;;;;;5060299;28;9534;-82
2021/10/06 05:17:10;;;;;;;;;1.75;1.75;;;;;;;;5063344;28;9641;-79
2021/10/06 05:19:39;;;;;;;;;2.50;2.50;;;;;;;;5062301;28;9635;-78
2021/10/06 05:22:08;;;;;;;;;1.00;1.00;;;;;;;;5064481;28;9764;-77
2021/10/06 05:24:35;;;;;;;;;2.75;2.00;;;;;;;;5062964;28;9630;-78
2021/10/06 05:27:03;;;;;;;;;2.00;2.00;;;;;;;;5064785;28;9739;-81
2021/10/06 05:29:30;;;;;;;;;1.75;1.75;;;;;;;;5060486;28;9627;-81
2021/10/06 05:31:59;;;;;;;;;2.00;2.00;;;;;;;;5064768;28;9725;-81
2021/10/06 05:34:26;;;;;;;;;4.50;2.00;;;;;;;;5063001;28;9703;-80
2021/10/06 05:36:57;;;;;;;;;3.75;2.00;;;;;;;;5063215;28;9756;-79
2021/10/06 05:39:26;;;;;;;;;1.75;1.75;;;;;;;;5064261;28;9866;-80
2021/10/06 05:41:53;;;;;;;;;1.25;1.25;;;;;;;;5061787;28;9770;-76
2021/10/06 05:44:20;;;;;;;;;1.00;1.00;;;;;;;;5063533;28;9834;-76
2021/10/06 05:46:48;;;;;;;;;3.00;1.50;;;;;;;;5062781;28;9803;-75
2021/10/06 05:49:15;;;;;;;;;2.00;2.00;;;;;;;;5064015;28;9800;-75
2021/10/06 05:51:42;;;;;;;;;1.75;1.75;;;;;;;;5060974;28;9773;-74
2021/10/06 05:54:10;;;;;;;;;2.25;2.25;;;;;;;;5062200;28;9880;-76
2021/10/06 05:56:39;;;;;;;;;2.00;0.75;;;;;;;;5062124;28;9888;-77
2021/10/06 05:59:06;;;;;;;;;2.50;2.50;;;;;;;;5056315;28;9831;-75
2021/10/06 06:01:33;;;;;;;;;5.25;3.50;;;;;;;;5055124;28;9746;-75
2021/10/06 06:04:01;;;;;;;;;2.75;2.75;;;;;;;;5059435;28;9870;-77
2021/10/06 06:06:29;;;;;;;;;2.50;2.50;;;;;;;;5063295;28;9785;-76
2021/10/06 06:08:56;;;;;;;;;3.00;3.00;;;;;;;;5059316;28;9929;-75
2021/10/06 06:11:25;;;;;;;;;2.50;2.50;;;;;;;;5063837;28;9906;-75
2021/10/06 06:13:54;;;;;;;;;2.25;0.50;;;;;;;;5052639;28;9875;-76
2021/10/06 06:16:21;;;;;;;;;3.50;3.00;;;;;;;;5063163;28;9787;-75
2021/10/06 06:18:48;;;;;;;;;4.50;3.50;;;;;;;;5062503;28;9903;-75
2021/10/06 06:21:16;;;;;;;;;5.75;3.75;;;;;;;;5063425;28;10026;-76
2021/10/06 06:23:43;;;;;;;;;5.00;4.50;;;;;;;;5061615;28;10890;-74
2021/10/06 06:26:10;;;;;;;;;5.00;3.25;;;;;;;;5058696;28;10044;-74
2021/10/06 06:28:38;;;;;;;;;3.25;1.75;;;;;;;;5065443;28;10007;-75
2021/10/06 06:31:07;;;;;;;;;7.00;3.50;;;;;;;;5063056;28;9809;-73
2021/10/06 06:33:35;;;;;;;;;2.75;2.75;;;;;;;;5063846;28;10776;-74
2021/10/06 06:36:04;;;;;;;;;3.25;3.25;;;;;;;;5063420;28;10024;-74
2021/10/06 06:38:31;;;;;;;;;3.00;2.75;;;;;;;;5063958;28;9935;-74
2021/10/06 06:40:58;;;;;;;;;2.75;2.75;;;;;;;;5064283;28;9789;-75
2021/10/06 06:43:26;;;;;;;;;1.25;1.25;;;;;;;;5062621;28;9854;-75
2021/10/06 06:45:53;;;;;;;;;3.50;2.25;;;;;;;;5047297;28;9886;-75
2021/10/06 06:48:22;;;;;;;;;1.50;1.50;;;;;;;;5064301;28;10081;-75
2021/10/06 06:50:53;;;;;;;;;2.25;1.00;;;;;;;;5062867;28;9809;-75
2021/10/06 06:53:20;;;;;;;;;1.25;1.25;;;;;;;;5064962;28;9856;-74
2021/10/06 06:55:47;;;;;;;;;1.00;1.00;;;;;;;;5062295;28;9791;-77
2021/10/06 06:58:15;;;;;;;;;1.00;1.00;;;;;;;;5062263;28;9765;-77
2021/10/06 07:00:43;;;;;;;;;4.50;1.00;;;;;;;;5059288;28;9919;-76
2021/10/06 07:03:11;;;;;;;;;2.00;0.75;;;;;;;;5040654;28;9731;-78
2021/10/06 07:05:39;;;;;;;;;0.00;0.00;;;;;;;;5055622;28;10428;-78
2021/10/06 07:08:08;;;;;;;;;1.00;1.00;;;;;;;;5057533;28;9708;-77
2021/10/06 07:10:35;;;;;;;;;1.00;0.25;;;;;;;;5059694;28;9508;-78
2021/10/06 07:13:03;;;;;;;;;1.00;1.00;;;;;;;;5056589;28;9474;-77
2021/10/06 07:15:30;;;;;;;;;2.00;1.00;;;;;;;;5062030;28;9392;-75
2021/10/06 07:17:58;;;;;;;;;2.00;1.00;;;;;;;;5044832;28;9465;-77
2021/10/06 07:20:26;;;;;;;;;1.00;1.00;;;;;;;;5063690;28;9352;-75
2021/10/06 07:22:55;;;;;;;;;1.00;1.00;;;;;;;;5062496;28;9258;-75
2021/10/06 07:25:23;;;;;;;;;1.33;0.00;;;;;;;;5063137;28;9280;-75
2021/10/06 07:27:50;;;;;;;;;1.00;1.00;;;;;;;;5061546;28;10137;-74
2021/10/06 07:30:18;;;;;;;;;0.67;0.67;;;;;;;;5055996;28;9221;-76
2021/10/06 07:32:46;;;;;;;;;0.00;0.00;;;;;;;;5063295;28;9347;-78
2021/10/06 07:35:14;;;;;;;;;1.00;1.00;;;;;;;;5062363;28;9267;-78
2021/10/06 07:37:42;;;;;;;;;1.33;1.00;;;;;;;;5063125;28;9278;-76
2021/10/06 07:40:12;;;;;;;;;0.33;0.33;;;;;;;;5057458;28;9345;-77
2021/10/06 07:42:40;;;;;;;;;3.67;3.67;;;;;;;;5060700;28;9253;-78
2021/10/06 07:45:08;;;;;;;;;4.00;1.00;;;;;;;;5060254;28;10141;-75
2021/10/06 07:47:36;;;;;;;;;0.00;0.00;;;;;;;;5058695;28;9040;-76
2021/10/06 07:50:03;;;;;;;;;3.00;1.00;;;;;;;;5058910;28;9008;-73
2021/10/06 07:52:31;;;;;;;;;2.00;1.00;;;;;;;;5058194;28;9043;-76
2021/10/06 07:54:58;;;;;;;;;1.00;1.00;;;;;;;;5045011;28;9022;-74
2021/10/06 07:57:27;;;;;;;;;1.33;1.33;;;;;;;;5060587;28;8968;-77
2021/10/06 07:59:54;;;;;;;;;1.00;1.00;;;;;;;;5062425;28;9209;-77
2021/10/06 08:02:23;;;;;;;;;0.00;0.00;;;;;;;;5058304;28;8837;-78
2021/10/06 08:04:50;;;;;;;;;0.00;0.00;;;;;;;;5061696;28;8872;-74
2021/10/06 08:07:18;;;;;;;;;0.50;0.25;;;;;;;;5061171;28;8907;-74
2021/10/06 08:09:45;;;;;;;;;0.00;0.00;;;;;;;;5058402;28;8892;-75
2021/10/06 08:12:21;;;;;;;;;0.00;0.00;;;;;;;;5062257;28;8878;-71
2021/10/06 08:14:50;;;;;;;;;1.75;0.75;;;;;;;;5059523;28;8915;-72
2021/10/06 08:17:17;;;;;;;;;0.00;0.00;;;;;;;;5060343;28;8892;-73
2021/10/06 08:19:46;;;;;;;;;1.00;1.00;;;;;;;;5061070;28;8856;-74
2021/10/06 08:22:13;;;;;;;;;1.00;1.00;;;;;;;;5058761;28;8978;-77
2021/10/06 08:24:40;;;;;;;;;2.00;0.75;;;;;;;;5060400;28;8856;-75
2021/10/06 08:27:08;;;;;;;;;4.75;3.00;;;;;;;;5053143;28;8898;-74
2021/10/06 08:29:35;;;;;;;;;2.75;1.00;;;;;;;;5058075;28;8852;-75
2021/10/06 08:32:05;;;;;;;;;2.00;0.00;;;;;;;;5056891;28;8826;-78
2021/10/06 08:34:33;;;;;;;;;1.25;1.00;;;;;;;;5043207;28;8864;-74
2021/10/06 08:37:00;;;;;;;;;4.50;2.50;;;;;;;;5062909;28;8932;-75
2021/10/06 08:39:28;;;;;;;;;2.00;1.00;;;;;;;;5066212;28;8989;-74
2021/10/06 08:41:56;;;;;;;;;0.25;0.25;;;;;;;;5065822;28;10494;-75
2021/10/06 08:44:24;;;;;;;;;0.75;0.75;;;;;;;;5064749;28;8917;-73
2021/10/06 08:46:51;;;;;;;;;1.00;0.00;;;;;;;;5064699;28;8852;-74
2021/10/06 08:49:20;;;;;;;;;0.00;0.00;;;;;;;;5064022;28;8872;-73
2021/10/06 08:51:48;;;;;;;;;0.50;0.00;;;;;;;;5065258;28;8864;-74
2021/10/06 08:54:15;;;;;;;;;0.25;0.25;;;;;;;;5045901;28;8852;-74
2021/10/06 08:56:44;;;;;;;;;1.50;0.00;;;;;;;;5063367;28;9668;-74
2021/10/06 08:59:11;;;;;;;;;2.50;1.00;;;;;;;;5062260;28;8851;-74
2021/10/06 09:01:43;;;;;;;;;0.50;0.50;;;;;;;;5060188;28;8825;-74
2021/10/06 09:04:12;;;;;;;;;1.25;0.25;;;;;;;;5061740;28;8869;-73
2021/10/06 09:06:41;;;;;;;;;1.00;1.00;;;;;;;;5064377;28;8868;-75
2021/10/06 09:09:14;;;;;;;;;0.00;0.00;;;;;;;;5062817;28;9461;-76
2021/10/06 09:11:41;;;;;;;;;2.00;0.75;;;;;;;;5059678;28;8860;-73
2021/10/06 09:14:09;;;;;;;;;0.00;0.00;;;;;;;;5061038;28;8880;-73
2021/10/06 09:16:38;;;;;;;;;0.00;0.00;;;;;;;;5061685;28;8921;-73
2021/10/06 09:19:06;;;;;;;;;0.00;0.00;;;;;;;;5061242;28;8856;-74
2021/10/06 09:21:37;;;;;;;;;0.25;0.25;;;;;;;;5064075;28;8864;-74
2021/10/06 09:24:11;;;;;;;;;0.00;0.00;;;;;;;;5062900;28;8848;-73
2021/10/06 09:26:38;;;;;;;;;0.50;0.00;;;;;;;;5065240;28;9693;-74
2021/10/06 09:29:06;;;;;;;;;1.25;1.00;;;;;;;;5064543;28;8879;-73
2021/10/06 09:31:33;;;;;;;;;1.00;1.00;;;;;;;;5046924;28;8804;-74
2021/10/06 09:34:02;;;;;;;;;0.00;0.00;;;;;;;;5064575;28;8848;-72
2021/10/06 09:36:31;;;;;;;;;2.25;0.75;;;;;;;;5063565;28;8860;-73
2021/10/06 09:39:00;;;;;;;;;0.00;0.00;;;;;;;;5062632;28;9019;-73
2021/10/06 09:41:35;;;;;;;;;2.00;0.00;;;;;;;;5064380;28;8844;-74
2021/10/06 09:44:05;;;;;;;;;0.00;0.00;;;;;;;;5048571;28;9101;-74
2021/10/06 09:46:51;;;;;;;;;0.25;0.00;;;;;;;;5061393;28;8852;-74
2021/10/06 09:49:27;;;;;;;;;0.00;0.00;;;;;;;;5063350;28;8890;-74
2021/10/06 09:52:25;;;;;;;;;3.75;1.00;;;;;;;;5069693;28;8945;-72
2021/10/06 09:54:53;;;;;;;;;0.00;0.00;;;;;;;;5000070;28;9000;-73
2021/10/06 09:57:28;;;;;;;;;0.00;0.00;;;;;;;;5048348;28;8876;-74
2021/10/06 09:59:57;;;;;;;;;0.00;0.00;;;;;;;;5060837;28;8949;-74
2021/10/06 10:02:26;;;;;;;;;1.00;1.00;;;;;;;;5061936;28;8812;-73
2021/10/06 10:04:55;;;;;;;;;0.00;0.00;;;;;;;;5058091;28;8879;-72
2021/10/06 10:07:22;;;;;;;;;0.75;0.75;;;;;;;;5062036;28;8906;-75
2021/10/06 10:09:50;;;;;;;;;0.00;0.00;;;;;;;;5044247;28;8876;-72
2021/10/06 10:12:19;;;;;;;;;0.50;0.00;;;;;;;;5062182;28;8876;-73
2021/10/06 10:14:49;;;;;;;;;0.00;0.00;;;;;;;;5062838;28;8895;-74
2021/10/06 10:17:17;;;;;;;;;0.00;0.00;;;;;;;;5060863;28;8894;-76
2021/10/06 10:19:45;;;;;;;;;0.75;0.75;;;;;;;;5059447;28;8870;-76
2021/10/06 10:22:13;;;;;;;;;0.75;0.50;;;;;;;;5058168;28;8827;-79
2021/10/06 10:24:45;;;;;;;;;0.00;0.00;;;;;;;;5060227;28;8876;-77
2021/10/06 10:27:14;;;;;;;;;0.00;0.00;;;;;;;;5060169;28;8870;-75
2021/10/06 10:30:02;;;;;;;;;0.00;0.00;;;;;;;;5059707;28;9652;-74
2021/10/06 10:32:42;;;;;;;;;0.75;0.00;;;;;;;;5058818;28;8950;-74
2021/10/06 10:35:11;;;;;;;;;1.00;0.00;;;;;;;;5062250;28;8869;-72
2021/10/06 10:38:29;;;;;;;;;12.75;8.50;;;;;;;;5057568;28;8890;-73
2021/10/06 10:40:58;;;;;;;;;7.50;5.50;;;;;;;;5060290;28;8875;-75
2021/10/06 10:43:29;;;;;;;;;1.00;1.00;;;;;;;;5046899;28;8829;-73
2021/10/06 10:46:11;;;;;;;;;0.50;0.00;;;;;;;;5057289;28;8873;-72
2021/10/06 10:49:04;;;;;;;;;0.00;0.00;;;;;;;;5062363;28;8918;-72
2021/10/06 10:51:48;;;;;;;;;0.00;0.00;;;;;;;;5060366;28;8860;-72
2021/10/06 10:54:30;;;;;;;;;1.00;0.00;;;;;;;;5062118;28;9039;-75
2021/10/06 10:56:58;;;;;;;;;0.00;0.00;;;;;;;;5062252;28;8832;-74
2021/10/06 10:59:27;;;;;;;;;0.00;0.00;;;;;;;;5052945;28;8840;-75
2021/10/06 11:01:57;;;;;;;;;0.00;0.00;;;;;;;;5057040;28;8838;-76
2021/10/06 11:04:27;;;;;;;;;0.00;0.00;;;;;;;;5058411;28;8864;-78
2021/10/06 11:06:56;;;;;;;;;0.00;0.00;;;;;;;;5055254;28;9006;-75
2021/10/06 11:09:46;;;;;;;;;0.00;0.00;;;;;;;;5056464;28;8875;-75
2021/10/06 11:12:39;;;;;;;;;0.40;0.40;;;;;;;;5055463;28;9748;-76
2021/10/06 11:15:26;;;;;;;;;1.00;0.00;;;;;;;;5061137;28;8840;-75
2021/10/06 11:18:16;;;;;;;;;0.00;0.00;;;;;;;;5060763;28;8954;-74
2021/10/06 11:20:46;;;;;;;;;0.00;0.00;;;;;;;;5057098;28;8888;-75
2021/10/06 11:23:52;;;;;;;;;0.00;0.00;;;;;;;;5058389;28;8868;-77
2021/10/06 11:26:27;;;;;;;;;0.00;0.00;;;;;;;;5055365;28;9001;-77
2021/10/06 11:28:56;;;;;;;;;0.00;0.00;;;;;;;;5041844;28;8868;-76
2021/10/06 11:31:25;;;;;;;;;0.00;0.00;;;;;;;;5041169;28;8808;-74
2021/10/06 11:33:54;;;;;;;;;0.00;0.00;;;;;;;;5053140;28;8867;-75
2021/10/06 11:36:24;;;;;;;;;0.00;0.00;;;;;;;;5056943;28;8868;-75
2021/10/06 11:38:58;;;;;;;;;0.00;0.00;;;;;;;;5057339;28;8868;-73
2021/10/06 11:41:26;;;;;;;;;0.00;0.00;;;;;;;;5053079;28;8843;-75
2021/10/06 11:43:56;;;;;;;;;0.00;0.00;;;;;;;;5055550;28;8868;-73
2021/10/06 11:46:25;;;;;;;;;0.00;0.00;;;;;;;;5040469;28;8941;-70
2021/10/06 11:48:55;;;;;;;;;0.00;0.00;;;;;;;;5057867;28;8887;-77
2021/10/06 11:51:38;;;;;;;;;1.00;0.00;;;;;;;;5052818;28;8872;-72
2021/10/06 11:54:06;;;;;;;;;0.00;0.00;;;;;;;;5055909;28;8891;-77
2021/10/06 11:56:34;;;;;;;;;0.20;0.00;;;;;;;;5048161;28;8875;-78
2021/10/06 11:59:09;;;;;;;;;1.20;0.00;;;;;;;;5056002;28;8939;-77
2021/10/06 12:01:37;;;;;;;;;0.00;0.00;;;;;;;;5057476;28;8797;-73
2021/10/06 12:04:14;;;;;;;;;0.00;0.00;;;;;;;;5060960;28;8884;-76
2021/10/06 12:06:43;;;;;;;;;0.00;0.00;;;;;;;;5056459;28;8877;-75
2021/10/06 12:09:12;;;;;;;;;0.00;0.00;;;;;;;;5058231;28;9683;-71
2021/10/06 12:11:41;;;;;;;;;0.00;0.00;;;;;;;;5063033;28;8990;-76
2021/10/06 12:14:19;;;;;;;;;0.00;0.00;;;;;;;;5061643;28;8872;-72
2021/10/06 12:16:49;;;;;;;;;0.00;0.00;;;;;;;;5064602;28;9006;-71
2021/10/06 12:19:24;;;;;;;;;0.00;0.00;;;;;;;;5065385;28;8959;-72
2021/10/06 12:21:51;;;;;;;;;0.40;0.00;;;;;;;;5064094;28;9013;-74
2021/10/06 12:24:20;;;;;;;;;0.00;0.00;;;;;;;;5062658;28;8868;-72
2021/10/06 12:26:47;;;;;;;;;0.00;0.00;;;;;;;;5060330;28;8862;-72
2021/10/06 12:29:16;;;;;;;;;0.00;0.00;;;;;;;;5061965;28;8890;-70
2021/10/06 12:31:43;;;;;;;;;0.00;0.00;;;;;;;;5048048;28;8816;-71
2021/10/06 12:34:13;;;;;;;;;0.00;0.00;;;;;;;;5066734;28;9641;-71
2021/10/06 12:36:47;;;;;;;;;0.00;0.00;;;;;;;;5066570;28;8845;-73
2021/10/06 12:39:17;;;;;;;;;0.00;0.00;;;;;;;;5047834;28;8880;-71
2021/10/06 12:41:51;;;;;;;;;2.00;0.00;;;;;;;;5067116;28;8860;-72
2021/10/06 12:44:27;;;;;;;;;0.00;0.00;;;;;;;;5066648;28;8864;-71
2021/10/06 12:46:56;;;;;;;;;0.00;0.00;;;;;;;;5066958;28;8909;-73
2021/10/06 12:49:24;;;;;;;;;0.00;0.00;;;;;;;;5066706;28;8908;-72
2021/10/06 12:52:01;;;;;;;;;0.00;0.00;;;;;;;;5066224;28;8911;-73
2021/10/06 12:54:30;;;;;;;;;0.00;0.00;;;;;;;;5067462;28;9039;-74
2021/10/06 12:57:00;;;;;;;;;0.00;0.00;;;;;;;;5066117;28;8864;-74
2021/10/06 12:59:36;;;;;;;;;0.00;0.00;;;;;;;;5066450;28;8890;-74
2021/10/06 13:02:05;;;;;;;;;0.00;0.00;;;;;;;;5065321;28;8841;-73
2021/10/06 13:04:33;;;;;;;;;0.00;0.00;;;;;;;;5067155;28;8863;-72
2021/10/06 13:07:01;;;;;;;;;0.00;0.00;;;;;;;;5066955;28;8848;-73
2021/10/06 13:09:29;;;;;;;;;0.00;0.00;;;;;;;;5065339;28;8852;-74
2021/10/06 13:11:58;;;;;;;;;0.00;0.00;;;;;;;;5067035;28;9746;-73
2021/10/06 13:14:25;;;;;;;;;0.00;0.00;;;;;;;;5065832;28;8871;-74
2021/10/06 13:16:53;;;;;;;;;0.00;0.00;;;;;;;;5066822;28;8860;-73
2021/10/06 13:19:21;;;;;;;;;0.00;0.00;;;;;;;;5065484;28;8864;-73
2021/10/06 13:21:50;;;;;;;;;0.00;0.00;;;;;;;;5066349;28;8848;-73
2021/10/06 13:24:18;;;;;;;;;0.00;0.00;;;;;;;;5066414;28;8864;-73
2021/10/06 13:26:48;;;;;;;;;0.00;0.00;;;;;;;;5064974;28;8898;-73
2021/10/06 13:29:16;;;;;;;;;0.00;0.00;;;;;;;;5066520;28;8929;-73
2021/10/06 13:31:45;;;;;;;;;4.00;0.00;;;;;;;;5064799;28;9627;-73
2021/10/06 13:34:13;;;;;;;;;0.00;0.00;;;;;;;;5048894;28;8872;-75
2021/10/06 13:36:41;;;;;;;;;1.00;0.00;;;;;;;;5065021;28;9590;-73
2021/10/06 13:39:08;;;;;;;;;0.20;0.00;;;;;;;;5066435;28;8852;-72
2021/10/06 13:41:37;;;;;;;;;1.20;0.00;;;;;;;;5065318;28;8867;-72
2021/10/06 13:44:05;;;;;;;;;1.00;0.00;;;;;;;;5065418;28;8870;-71
2021/10/06 13:46:33;;;;;;;;;0.00;0.00;;;;;;;;5066615;28;8867;-72
2021/10/06 13:49:01;;;;;;;;;0.00;0.00;;;;;;;;5064391;28;8844;-74
2021/10/06 13:51:28;;;;;;;;;0.00;0.00;;;;;;;;5065882;28;9676;-72
2021/10/06 13:53:57;;;;;;;;;0.00;0.00;;;;;;;;5064981;28;8987;-73
2021/10/06 13:56:24;;;;;;;;;0.00;0.00;;;;;;;;5062858;28;8898;-72
2021/10/06 13:58:53;;;;;;;;;0.00;0.00;;;;;;;;5047061;28;8890;-72
2021/10/06 14:01:21;;;;;;;;;0.00;0.00;;;;;;;;5063992;28;8829;-73
2021/10/06 14:03:49;;;;;;;;;0.00;0.00;;;;;;;;5066357;28;8872;-72
2021/10/06 14:06:16;;;;;;;;;0.00;0.00;;;;;;;;5064434;28;8872;-74
2021/10/06 14:08:44;;;;;;;;;0.00;0.00;;;;;;;;5068530;28;8907;-73
2021/10/06 14:11:11;;;;;;;;;0.80;0.00;;;;;;;;5064266;28;8968;-73
2021/10/06 14:13:39;;;;;;;;;0.00;0.00;;;;;;;;5064856;28;8860;-71
2021/10/06 14:16:08;;;;;;;;;0.40;0.00;;;;;;;;5064579;28;8840;-71
2021/10/06 14:18:36;;;;;;;;;0.00;0.00;;;;;;;;5064133;28;8930;-71
2021/10/06 14:21:05;;;;;;;;;1.00;0.00;;;;;;;;5048145;28;8864;-72
2021/10/06 14:23:32;;;;;;;;;0.40;0.00;;;;;;;;5064220;28;8942;-71
2021/10/06 14:25:59;;;;;;;;;0.00;0.00;;;;;;;;5064969;28;8876;-73
2021/10/06 14:28:27;;;;;;;;;0.25;0.00;;;;;;;;5063038;28;8886;-71
2021/10/06 14:30:55;;;;;;;;;0.00;0.00;;;;;;;;5064705;28;9675;-72
2021/10/06 14:33:24;;;;;;;;;0.00;0.00;;;;;;;;5063687;28;8964;-72
2021/10/06 14:35:51;;;;;;;;;0.00;0.00;;;;;;;;5063776;28;8868;-71
2021/10/06 14:38:18;;;;;;;;;1.50;0.00;;;;;;;;5065120;28;8856;-71
2021/10/06 14:40:46;;;;;;;;;0.00;0.00;;;;;;;;5061304;28;8891;-71
2021/10/06 14:43:13;;;;;;;;;0.00;0.00;;;;;;;;5064706;28;8864;-72
2021/10/06 14:45:40;;;;;;;;;0.00;0.00;;;;;;;;5051616;28;8888;-72
2021/10/06 14:48:08;;;;;;;;;0.00;0.00;;;;;;;;5065185;28;8875;-71
2021/10/06 14:50:36;;;;;;;;;0.00;0.00;;;;;;;;5063492;28;8856;-74
2021/10/06 14:53:04;;;;;;;;;0.00;0.00;;;;;;;;5057815;28;8865;-72
2021/10/06 14:55:31;;;;;;;;;0.00;0.00;;;;;;;;5061690;28;8860;-73
2021/10/06 14:57:58;;;;;;;;;0.00;0.00;;;;;;;;5045235;28;8860;-70
2021/10/06 15:00:26;;;;;;;;;0.00;0.00;;;;;;;;5061724;28;8808;-71
2021/10/06 15:02:54;;;;;;;;;0.00;0.00;;;;;;;;5062222;28;8844;-71
2021/10/06 15:05:23;;;;;;;;;2.00;0.00;;;;;;;;5064425;28;8967;-72
2021/10/06 15:07:53;;;;;;;;;0.00;0.00;;;;;;;;5063403;28;8886;-71